Time;durP1;ratioP1;P1;durP2;ratioP2;P2;SDS_P1;SDS_P2;PMS_P1;PMS_P2;Temp;Humidity;BMP_temperature;BMP_pressure;BME280_temperature;BME280_humidity;BME280_pressure;Samples;Min_cycle;Max_cycle;Signal;HPM_P1;HPM_P2
2022/01/05 00:01:29;;;;;;;3.45;1.17;;;;;;;;;;5114564;28;20075;-77
2022/01/05 00:03:55;;;;;;;6.15;1.55;;;;;;;;;;5114820;28;20035;-76
2022/01/05 00:06:21;;;;;;;4.07;1.10;;;;;;;;;;5114288;28;20024;-78
2022/01/05 00:08:47;;;;;;;4.75;1.50;;;;;;;;;;5114391;28;20096;-77
2022/01/05 00:11:13;;;;;;;5.57;1.23;;;18.40;75.00;;;;;;5114225;28;20055;-79
2022/01/05 00:13:38;;;;;;;4.68;1.30;;;17.80;80.30;;;;;;5096148;28;20428;-78
2022/01/05 00:16:04;;;;;;;4.88;1.42;;;17.70;85.30;;;;;;5113912;28;20038;-77
2022/01/05 00:18:34;;;;;;;4.72;1.40;;;;;;;;;;5114291;28;20546;-78
2022/01/05 00:21:01;;;;;;;4.53;1.55;;;;;;;;;;5114011;28;20471;-76
2022/01/05 00:23:27;;;;;;;5.78;1.52;;;;;;;;;;5114313;28;20028;-78
2022/01/05 00:25:54;;;;;;;4.43;1.65;;;;;;;;;;5096045;28;20089;-76
2022/01/05 00:28:20;;;;;;;6.28;2.05;;;;;;;;;;5113840;28;20020;-75
2022/01/05 00:30:46;;;;;;;5.25;1.70;;;;;;;;;;5113850;28;20032;-78
2022/01/05 00:33:14;;;;;;;4.07;1.48;;;;;;;;;;5113579;28;20081;-78
2022/01/05 00:35:40;;;;;;;5.55;1.70;;;;;;;;;;5113943;28;20031;-77
2022/01/05 00:38:06;;;;;;;5.28;1.50;;;;;;;;;;5113674;28;20024;-79
2022/01/05 00:40:32;;;;;;;5.88;1.60;;;;;;;;;;5113762;28;20445;-77
2022/01/05 00:42:58;;;;;;;4.35;1.27;;;;;;;;;;5113514;28;20027;-76
2022/01/05 00:45:25;;;;;;;4.40;1.30;;;;;;;;;;5113625;28;20039;-76
2022/01/05 00:47:51;;;;;;;3.97;1.30;;;;;;;;;;5095299;28;20490;-77
2022/01/05 00:50:17;;;;;;;6.68;1.90;;;;;;;;;;5095129;28;20031;-77
2022/01/05 00:52:43;;;;;;;4.18;1.33;;;;;;;;;;5113559;28;20016;-76
2022/01/05 00:55:09;;;;;;;3.17;1.23;;;;;;;;;;5113350;28;20027;-76
2022/01/05 00:57:35;;;;;;;4.20;1.45;;;;;;;;;;5113562;28;20019;-76
2022/01/05 01:00:01;;;;;;;5.57;1.67;;;;;;;;;;5113219;28;20028;-78
2022/01/05 01:02:27;;;;;;;6.03;1.60;;;;;;;;;;5113943;28;20024;-76
2022/01/05 01:04:53;;;;;;;4.95;1.77;;;;;;;;;;5113725;28;20028;-78
2022/01/05 01:07:19;;;;;;;3.35;1.40;;;;;;;;;;5113021;28;20020;-76
2022/01/05 01:09:45;;;;;;;6.05;1.67;;;;;;;;;;5113136;28;20085;-77
2022/01/05 01:12:11;;;;;;;6.53;1.88;;;;;;;;;;5112957;28;20106;-76
2022/01/05 01:14:38;;;;;;;4.40;1.33;;;;;;;;;;5113185;28;20502;-77
2022/01/05 01:17:04;;;;;;;3.28;1.30;;;;;;;;;;5112826;28;20447;-78
2022/01/05 01:19:30;;;;;;;4.03;1.25;;;;;;;;;;5112946;28;20426;-77
2022/01/05 01:21:58;;;;;;;5.85;1.50;;;;;;;;;;5113357;28;20034;-77
2022/01/05 01:24:24;;;;;;;5.15;1.60;;;;;;;;;;5113213;28;20486;-77
2022/01/05 01:26:50;;;;;;;7.05;1.90;;;;;;;;;;5112885;28;20024;-77
2022/01/05 01:29:16;;;;;;;6.28;1.90;;;;;;;;;;5112528;28;20027;-76
2022/01/05 01:31:42;;;;;;;3.75;1.30;;;;;;;;;;5112872;28;20368;-76
2022/01/05 01:34:08;;;;;;;4.25;1.52;;;;;;;;;;5112463;28;20030;-77
2022/01/05 01:36:34;;;;;;;6.38;1.65;;;;;;;;;;5112791;28;20028;-77
2022/01/05 01:39:00;;;;;;;4.15;1.48;;;;;;;;;;5112431;28;20103;-76
2022/01/05 01:41:26;;;;;;;3.97;1.75;;;;;;;;;;5112784;28;20119;-77
2022/01/05 01:43:52;;;;;;;4.78;1.63;;;;;;;;;;5111836;28;20395;-78
2022/01/05 01:46:18;;;;;;;4.55;1.80;;;;;;;;;;5112295;28;20053;-77
2022/01/05 01:48:44;;;;;;;4.32;1.52;;;;;;;;;;5112462;28;20055;-79
2022/01/05 01:51:11;;;;;;;4.47;1.20;;;;;;;;;;5112169;28;20518;-76
2022/01/05 01:53:37;;;;;;;6.43;1.48;;;;;;;;;;5112398;28;20051;-77
2022/01/05 01:56:03;;;;;;;5.57;1.77;;;;;;;;;;5112146;28;20440;-77
2022/01/05 01:58:33;;;;;;;4.80;1.50;;;;;;;;;;5094184;28;20088;-77
2022/01/05 02:00:59;;;;;;;6.55;2.00;;;;;;;;;;5112112;28;20073;-78
2022/01/05 02:03:25;;;;;;;4.20;1.10;;;;;;;;;;5112534;28;20032;-77
2022/01/05 02:05:51;;;;;;;5.03;1.50;;;;;;;;;;5112212;28;20079;-78
2022/01/05 02:08:17;;;;;;;3.45;1.42;;;;;;;;;;5111981;28;20062;-78
2022/01/05 02:10:43;;;;;;;3.58;1.77;;;;;;;;;;5112147;28;20032;-78
2022/01/05 02:13:10;;;;;;;5.05;1.63;;;;;;;;;;5111922;28;20029;-78
2022/01/05 02:15:36;;;;;;;3.60;1.20;;;;;;;;;;5112087;28;20028;-77
2022/01/05 02:20:29;;;;;;;3.90;1.30;;;;;;;;;;5112040;28;20035;-78
2022/01/05 02:22:55;;;;;;;5.55;1.30;;;;;;;;;;5112196;28;20020;-77
2022/01/05 02:25:22;;;;;;;4.13;1.40;;;;;;;;;;5111701;28;20034;-77
2022/01/05 02:27:49;;;;;;;6.93;1.90;;;;;;;;;;5111946;28;20618;-75
2022/01/05 02:30:18;;;;;;;6.88;1.80;;;;;;;;;;5111496;28;20027;-77
2022/01/05 02:32:44;;;;;;;6.25;1.70;;;;;;;;;;5111835;28;20019;-78
2022/01/05 02:35:11;;;;;;;6.05;1.77;;;;;;;;;;5111437;28;20513;-77
2022/01/05 02:37:41;;;;;;;6.15;1.70;;;;;;;;;;5111736;28;20055;-77
2022/01/05 02:40:09;;;;;;;9.30;2.13;;;;;;;;;;5093154;28;20027;-76
2022/01/05 02:42:35;;;;;;;6.57;1.50;;;;;;;;;;5111747;28;20028;-76
2022/01/05 02:45:01;;;;;;;5.15;1.63;;;;;;;;;;5111434;28;20034;-77
2022/01/05 02:47:27;;;;;;;4.97;1.52;;;;;;;;;;5111839;28;20391;-78
2022/01/05 02:49:57;;;;;;;4.97;1.60;;;;;;;;;;5111771;28;20038;-79
2022/01/05 02:52:23;;;;;;;5.82;1.25;;;;;;;;;;5111608;28;20023;-76
2022/01/05 02:54:49;;;;;;;5.57;1.80;;;;;;;;;;5111836;28;20030;-76
2022/01/05 02:57:15;;;;;;;5.25;1.45;;;;;;;;;;5113750;28;20064;-76
2022/01/05 02:59:41;;;;;;;4.80;1.58;;;;;;;;;;5115826;28;20139;-77
2022/01/05 03:02:07;;;;;;;7.10;1.67;;;;;;;;;;5115627;28;20467;-77
2022/01/05 03:04:33;;;;;;;4.97;1.40;;;;;;;;;;5115809;28;20067;-77
2022/01/05 03:06:59;;;;;;;5.57;1.80;;;;;;;;;;5115253;28;20031;-77
2022/01/05 03:09:25;;;;;;;5.80;2.03;;;;;;;;;;5115834;28;20046;-77
2022/01/05 03:11:51;;;;;;;7.43;1.83;;;;;;;;;;5115497;28;20047;-77
2022/01/05 03:14:17;;;;;;;4.50;1.77;;;;;;;;;;5115391;28;20016;-77
2022/01/05 03:16:43;;;;;;;7.47;2.30;;;;;;;;;;5115449;28;20069;-76
2022/01/05 03:19:09;;;;;;;4.80;1.65;;;;;;;;;;5115168;28;20078;-77
2022/01/05 03:21:35;;;;;;;4.72;1.75;;;;;;;;;;5115344;28;20030;-79
2022/01/05 03:24:01;;;;;;;5.78;1.90;;;;;;;;;;5115060;28;20513;-77
2022/01/05 03:26:27;;;;;;;5.88;1.80;;;;;;;;;;5097394;28;20016;-77
2022/01/05 03:28:53;;;;;;;5.50;1.60;;;;;;;;;;5115510;28;20031;-77
2022/01/05 03:31:19;;;;;;;5.80;1.85;;;;;;;;;;5114928;28;20027;-77
2022/01/05 03:33:45;;;;;;;6.82;2.05;;;;;;;;;;5096831;28;20401;-76
2022/01/05 03:36:11;;;;;;;4.10;1.30;;;;;;;;;;5114884;28;20026;-77
2022/01/05 03:38:37;;;;;;;4.93;1.88;;;;;;;;;;5115095;28;20522;-78
2022/01/05 03:41:03;;;;;;;5.10;1.88;;;;;;;;;;5114821;28;20394;-77
2022/01/05 03:43:29;;;;;;;5.68;1.55;;;;;;;;;;5114630;28;20036;-77
2022/01/05 03:45:55;;;;;;;4.72;1.60;;;;;;;;;;5115263;28;20027;-77
2022/01/05 03:48:21;;;;;;;5.13;1.83;;;;;;;;;;5114636;28;20124;-77
2022/01/05 03:50:48;;;;;;;8.20;1.90;;;;;;;;;;5114643;28;20118;-77
2022/01/05 03:53:14;;;;;;;5.25;1.70;;;;;;;;;;5114605;28;20019;-76
2022/01/05 03:55:41;;;;;;;5.65;1.80;;;;;;;;;;5114718;28;20031;-76
2022/01/05 03:58:07;;;;;;;5.40;1.60;;;;;;;;;;5114387;28;20015;-77
2022/01/05 04:00:36;;;;;;;4.32;1.30;;;;;;;;;;5114601;28;20386;-77
2022/01/05 04:03:02;;;;;;;5.75;1.50;;;;;;;;;;5114134;28;20027;-77
2022/01/05 04:05:28;;;;;;;8.32;1.70;;;;;;;;;;5114810;28;20023;-76
2022/01/05 04:07:54;;;;;;;3.80;1.30;;;;;;;;;;5114052;28;20024;-77
2022/01/05 04:10:20;;;;;;;6.47;1.80;;;;;;;;;;5114128;28;20039;-77
2022/01/05 04:12:47;;;;;;;5.47;1.70;;;;;;;;;;5114309;28;20512;-77
2022/01/05 04:15:14;;;;;;;7.30;2.05;;;;;;;;;;5114184;28;20029;-78
2022/01/05 04:17:40;;;;;;;6.32;1.65;;;;;;;;;;5114301;28;20024;-77
2022/01/05 04:20:06;;;;;;;6.13;1.88;;;;;;;;;;5114040;28;20031;-78
2022/01/05 04:22:32;;;;;;;4.53;1.33;;;;;;;;;;5114121;28;20016;-77
2022/01/05 04:24:58;;;;;;;5.13;1.95;;;;;;;;;;5113907;28;20556;-76
2022/01/05 04:27:24;;;;;;;5.03;1.60;;;;;;;;;;5114399;28;20050;-76
2022/01/05 04:29:50;;;;;;;11.25;1.95;;;;;;;;;;5114013;28;20036;-77
2022/01/05 04:32:16;;;;;;;5.25;1.80;;;;;;;;;;5113657;28;20026;-77
2022/01/05 04:34:42;;;;;;;5.88;1.67;;;;;;;;;;5113962;28;20434;-77
2022/01/05 04:37:09;;;;;;;4.30;1.60;;;;;;;;;;5113711;28;20019;-77
2022/01/05 04:39:35;;;;;;;3.20;1.20;;;;;;;;;;5113810;28;20382;-77
2022/01/05 04:42:01;;;;;;;5.25;1.70;;;;;;;;;;5113677;28;20023;-76
2022/01/05 04:44:28;;;;;;;4.72;1.83;;;;;;;;;;5113864;28;20027;-79
2022/01/05 04:46:54;;;;;;;4.25;1.27;;;;;;;;;;5113965;28;20031;-77
2022/01/05 04:49:20;;;;;;;5.32;1.83;;;;;;;;;;5113397;28;20115;-77
2022/01/05 04:51:46;;;;;;;4.18;1.20;;;;;;;;;;5113753;28;20055;-77
2022/01/05 04:54:12;;;;;;;6.15;1.90;;;;;;;;;;5113404;28;20071;-78
2022/01/05 04:56:38;;;;;;;5.18;1.60;;;;;;;;;;5113621;28;20518;-77
2022/01/05 04:59:04;;;;;;;6.22;1.45;;;;;;;;;;5113186;28;20051;-77
2022/01/05 05:01:30;;;;;;;3.97;1.52;;;;;;;;;;5113446;28;20051;-77
2022/01/05 05:03:56;;;;;;;4.45;1.50;;;;;;;;;;5113744;28;20028;-75
2022/01/05 05:06:22;;;;;;;5.18;1.70;;;;;;;;;;5113160;28;20024;-77
2022/01/05 05:08:49;;;;;;;6.97;1.63;;;;;;;;;;5113315;28;20143;-77
2022/01/05 05:11:15;;;;;;;3.33;1.23;;;;;;;;;;5112935;28;20058;-76
2022/01/05 05:13:41;;;;;;;5.35;1.90;;;;;;;;;;5113125;28;20508;-76
2022/01/05 05:16:07;;;;;;;5.63;1.48;;;;;;;;;;5112862;28;20395;-77
2022/01/05 05:18:33;;;;;;;4.40;1.48;;;;;;;;;;5112618;28;20490;-77
2022/01/05 05:20:59;;;;;;;5.57;1.60;;;;;;;;;;5112375;28;20374;-77
2022/01/05 05:23:25;;;;;;;5.07;1.77;;;;;;;;;;5113329;28;20031;-78
2022/01/05 05:25:51;;;;;;;6.55;1.50;;;;;;;;;;5112987;28;20019;-76
2022/01/05 05:28:18;;;;;;;6.05;1.90;;;;;;;;;;5112722;28;20035;-77
2022/01/05 05:30:44;;;;;;;5.50;1.70;;;;;;;;;;5112804;28;20036;-77
2022/01/05 05:33:09;;;;;;;4.28;1.50;;;;;;;;;;5112491;28;20028;-77
2022/01/05 05:35:35;;;;;;;4.53;1.52;;;;;;;;;;5112857;28;20030;-77
2022/01/05 05:38:01;;;;;;;4.30;1.30;;;;;;;;;;5112568;28;20483;-77
2022/01/05 05:40:28;;;;;;;5.32;1.48;;;;;;;;;;5113045;28;20506;-78
2022/01/05 05:42:54;;;;;;;4.28;1.40;;;;;;;;;;5112956;28;20024;-76
2022/01/05 05:45:20;;;;;;;6.63;1.85;;;;;;;;;;5111892;28;20033;-76
2022/01/05 05:47:46;;;;;;;5.18;1.58;;;;;;;;;;5094108;28;20024;-76
2022/01/05 05:50:12;;;;;;;5.72;1.65;;;;;;;;;;5112209;28;20031;-76
2022/01/05 05:52:38;;;;;;;5.47;1.35;;;;;;;;;;5112361;28;20027;-77
2022/01/05 05:55:05;;;;;;;5.07;1.50;;;;;;;;;;5112031;28;20492;-76
2022/01/05 05:57:30;;;;;;;8.10;1.77;;;;;;;;;;5112414;28;20027;-76
2022/01/05 05:59:57;;;;;;;4.85;1.52;;;;;;;;;;5112655;28;20026;-77
2022/01/05 06:02:22;;;;;;;5.13;1.50;;;;;;;;;;5111798;28;20055;-76
2022/01/05 06:04:49;;;;;;;6.43;1.30;;;;;;;;;;5112237;28;20537;-76
2022/01/05 06:07:15;;;;;;;4.38;1.38;;;;;;;;;;5111932;28;20054;-77
2022/01/05 06:09:41;;;;;;;5.10;1.55;;;;;;;;;;5111959;28;20020;-77
2022/01/05 06:12:07;;;;;;;5.30;1.48;;;;;;;;;;5093900;28;20376;-77
2022/01/05 06:14:33;;;;;;;5.60;1.40;;;;;;;;;;5112006;28;20031;-77
2022/01/05 06:16:59;;;;;;;5.47;1.30;;;;;;;;;;5111786;28;20106;-75
2022/01/05 06:19:25;;;;;;;3.50;1.17;;;;;;;;;;5093890;28;20597;-76
2022/01/05 06:21:51;;;;;;;4.78;1.20;;;;;;;;;;5093850;28;20032;-76
2022/01/05 06:24:17;;;;;;;5.63;1.75;;;;;;;;;;5111683;28;20051;-76
2022/01/05 06:26:46;;;;;;;7.32;1.45;;;;;;;;;;5111687;28;20024;-76
2022/01/05 06:29:16;;;;;;;4.57;1.92;;;;;;;;;;5111469;28;20031;-77
2022/01/05 06:31:42;;;;;;;3.45;1.38;;;;;;;;;;5111607;28;20032;-75
2022/01/05 06:34:08;;;;;;;4.93;1.58;;;;;;;;;;5111673;28;20061;-76
2022/01/05 06:36:34;;;;;;;10.13;1.67;;;;;;;;;;5111841;28;20032;-77
2022/01/05 06:39:00;;;;;;;3.67;1.10;;;;;;;;;;5111553;28;20019;-76
2022/01/05 06:41:26;;;;;;;4.50;1.38;;;;;;;;;;5111749;28;20033;-76
2022/01/05 06:43:52;;;;;;;4.63;1.33;;;;;;;;;;5111838;28;20382;-78
2022/01/05 06:46:18;;;;;;;3.65;1.30;;;;;;;;;;5093260;28;20055;-75
2022/01/05 06:48:44;;;;;;;6.32;1.45;;;;;;;;;;5111680;28;20447;-77
2022/01/05 06:51:10;;;;;;;7.57;1.40;;;;;;;;;;5111311;28;20114;-76
2022/01/05 06:53:36;;;;;;;7.00;1.52;;;;;;;;;;5111623;28;20020;-76
2022/01/05 06:56:02;;;;;;;3.95;1.20;;;;;;;;;;5111319;28;20054;-76
2022/01/05 06:58:28;;;;;;;5.32;1.63;;;;;;;;;;5111914;28;20028;-75
2022/01/05 07:00:55;;;;;;;5.40;1.33;;;;;;;;;;5111906;28;20016;-75
2022/01/05 07:03:21;;;;;;;6.60;1.65;;;;;;;;;;5111198;28;20251;-75
2022/01/05 07:05:47;;;;;;;5.72;1.00;;;;;;;;;;5111107;28;20024;-76
2022/01/05 07:08:14;;;;;;;4.25;1.30;;;;;;;;;;5111019;28;20084;-76
2022/01/05 07:10:40;;;;;;;10.57;2.28;;;;;;;;;;5113033;28;20039;-75
2022/01/05 07:13:07;;;;;;;4.43;1.80;;;;;;;;;;5109498;28;20031;-76
2022/01/05 07:15:33;;;;;;;6.78;1.52;;;;;;;;;;5109594;28;20031;-77
2022/01/05 07:17:59;;;;;;;4.97;1.67;;;;;;;;;;5109439;28;20020;-77
2022/01/05 07:20:26;;;;;;;6.60;1.60;;;;;;;;;;5109881;28;20047;-76
2022/01/05 07:22:52;;;;;;;4.38;1.40;;;;;;;;;;5091516;28;20063;-76
2022/01/05 07:25:18;;;;;;;6.13;1.55;;;;;;;;;;5109217;28;20039;-76
2022/01/05 07:27:44;;;;;;;6.53;1.80;;;;;;;;;;5109636;28;20019;-76
2022/01/05 07:30:10;;;;;;;5.72;1.63;;;;;;;;;;5110734;28;20024;-76
2022/01/05 07:32:36;;;;;;;5.18;1.63;;;;;;;;;;5111167;28;20081;-76
2022/01/05 07:35:03;;;;;;;7.72;1.67;;;;;;;;;;5110341;28;20079;-76
2022/01/05 07:37:29;;;;;;;4.07;1.50;;;;;;;;;;5109900;28;20410;-76
2022/01/05 07:39:55;;;;;;;4.63;1.48;;;;;;;;;;5110338;28;20483;-75
2022/01/05 07:42:21;;;;;;;6.93;1.50;;;;;;;;;;5111527;28;20035;-76
2022/01/05 07:44:47;;;;;;;10.98;2.00;;;17.60;62.70;;;;;;5122889;27;20383;-77
2022/01/05 07:47:13;;;;;;;9.02;1.48;;;17.70;64.30;;;;;;5135116;27;20059;-76
2022/01/05 07:49:39;;;;;;;7.85;1.48;;;;;;;;;;5128636;27;20020;-77
2022/01/05 07:52:06;;;;;;;5.63;1.60;;;;;;;;;;5113294;28;20019;-77
2022/01/05 07:54:32;;;;;;;6.25;1.73;;;;;;;;;;5114582;28;20026;-77
2022/01/05 07:56:58;;;;;;;7.80;1.90;;;;;;;;;;5114112;28;20035;-76
2022/01/05 07:59:24;;;;;;;6.78;2.10;;;;;;;;;;5114621;28;20023;-78
2022/01/05 08:01:51;;;;;;;6.00;2.13;;;;;;;;;;5112876;28;20034;-78
2022/01/05 08:04:18;;;;;;;6.03;1.83;;;;;;;;;;5114272;28;20020;-77
2022/01/05 08:06:44;;;;;;;5.32;1.20;;;;;;;;;;5114336;28;20019;-77
2022/01/05 08:09:10;;;;;;;6.78;1.80;;;;;;;;;;5095749;28;20030;-78
2022/01/05 08:11:36;;;;;;;6.97;1.80;;;;;;;;;;5113558;28;20031;-78
2022/01/05 08:14:04;;;;;;;4.97;1.70;;;;;;;;;;5112632;28;20027;-75
2022/01/05 08:16:30;;;;;;;5.68;1.77;;;;;;;;;;5114336;28;20035;-75
2022/01/05 08:18:55;;;;;;;6.18;1.70;;;;;;;;;;5114257;28;20034;-77
2022/01/05 08:21:22;;;;;;;7.05;1.67;;;;;;;;;;5113642;28;20407;-77
2022/01/05 08:23:48;;;;;;;13.98;2.33;;;;;;;;;;5112366;28;20020;-77
2022/01/05 08:26:14;;;;;;;15.95;2.30;;;;;;;;;;5113172;28;20111;-77
2022/01/05 08:28:40;;;;;;;14.77;2.30;;;;;;;;;;5112036;28;20486;-76
2022/01/05 08:31:06;;;;;;;14.35;2.67;;;;;;;;;;5111922;28;20032;-76
2022/01/05 08:33:34;;;;;;;9.38;1.85;;;;;;;;;;5112787;28;20379;-77
2022/01/05 08:36:02;;;;;;;8.75;2.25;;;;;;;;;;5112834;28;20019;-77
2022/01/05 08:38:28;;;;;;;8.88;1.73;;;;;;;;;;5095103;28;20072;-76
2022/01/05 08:40:54;;;;;;;10.10;2.55;;;;;;;;;;5095450;28;20020;-77
2022/01/05 08:43:20;;;;;;;7.32;1.88;;;;;;;;;;5095053;28;20026;-77
2022/01/05 08:45:47;;;;;;;13.25;2.70;;;;;;;;;;5095262;28;20424;-76
2022/01/05 08:48:13;;;;;;;8.48;1.63;;;;;;;;;;5112842;28;20096;-78
2022/01/05 08:50:39;;;;;;;7.50;2.22;;;;;;;;;;5094112;28;20415;-79
2022/01/05 08:53:06;;;;;;;8.85;2.00;;;;;;;;;;5094958;28;20022;-79
2022/01/05 08:55:40;;;;;;;8.50;1.80;;;;;;;;;;5113609;28;20372;-79
2022/01/05 08:58:07;;;;;;;6.85;1.40;;;;;;;;;;5113207;28;20020;-79
2022/01/05 09:00:33;;;;;;;10.07;1.85;;;;;;;;;;5113507;28;20023;-78
2022/01/05 09:03:00;;;;;;;7.00;2.22;;;;;;;;;;5113014;28;20073;-78
2022/01/05 09:05:26;;;;;;;6.03;2.28;;;;;;;;;;5113638;28;20036;-78
2022/01/05 09:07:52;;;;;;;8.15;2.10;;;;;;;;;;5113310;28;20024;-78
2022/01/05 09:10:18;;;;;;;5.20;1.30;;;;;;;;;;5112567;28;20506;-79
2022/01/05 09:12:45;;;;;;;7.15;1.90;;;;;;;;;;5113180;28;20506;-78
2022/01/05 09:15:11;;;;;;;8.98;1.85;;;;;;;;;;5112988;28;20444;-78
2022/01/05 09:17:37;;;;;;;5.82;1.80;;;;;;;;;;5113014;28;20495;-80
2022/01/05 09:20:04;;;;;;;9.35;1.90;;;;;;;;;;5112925;28;20023;-79
2022/01/05 09:22:30;;;;;;;7.18;1.77;;;;;;;;;;5113145;28;20031;-79
2022/01/05 09:24:56;;;;;;;6.93;2.08;;;;;;;;;;5093076;28;20384;-78
2022/01/05 09:27:23;;;;;;;6.68;2.42;;;;;;;;;;5092776;28;20185;-79
2022/01/05 09:29:49;;;;;;;8.07;1.48;;;;;;;;;;5093356;28;20196;-79
2022/01/05 09:32:16;;;;;;;7.00;1.77;;;;;;;;;;5112567;28;20095;-78
2022/01/05 09:34:42;;;;;;;11.52;2.55;;;;;;;;;;5112644;28;20100;-78
2022/01/05 09:37:22;;;;;;;4.57;1.60;;;;;;;;;;5112476;28;20063;-79
2022/01/05 09:42:41;;;;;;;5.53;1.83;;;;;;;;;;5088465;28;20106;-78
2022/01/05 09:45:16;;;;;;;5.10;1.63;;;;;;;;;;5110522;28;20024;-79
2022/01/05 09:47:45;;;;;;;7.10;1.90;;;;;;;;;;5108283;28;20525;-78
2022/01/05 09:50:12;;;;;;;4.38;1.27;;;;;;;;;;5112150;28;20059;-79
2022/01/05 09:52:41;;;;;;;6.57;1.75;;;;;;;;;;5110863;28;20464;-78
2022/01/05 09:55:08;;;;;;;5.47;1.77;;;;;;;;;;5110356;28;20020;-78
2022/01/05 09:57:34;;;;;;;5.32;1.80;;;;;;;;;;5112023;28;20430;-78
2022/01/05 10:00:00;;;;;;;5.07;1.45;;;;;;;;;;5112189;28;20024;-79
2022/01/05 10:02:27;;;;;;;5.20;1.42;;;;;;;;;;5112528;28;20470;-78
2022/01/05 10:04:53;;;;;;;6.78;1.85;;;;;;;;;;5093765;28;20016;-78
2022/01/05 10:07:19;;;;;;;5.07;1.63;;;;;;;;;;5111947;28;20020;-77
2022/01/05 10:09:46;;;;;;;7.47;2.88;;;;;;;;;;5111995;28;20035;-78
2022/01/05 10:12:13;;;;;;;9.45;1.88;;;;;;;;;;5111908;28;20507;-78
2022/01/05 10:14:43;;;;;;;4.50;1.48;;;;;;;;;;5112080;28;20031;-79
2022/01/05 10:17:11;;;;;;;7.32;1.60;;;;;;;;;;5111801;28;20069;-79
2022/01/05 10:19:37;;;;;;;4.28;1.90;;;;;;;;;;5112076;28;20019;-78
2022/01/05 10:22:04;;;;;;;5.05;1.70;;;;;;;;;;5111862;28;20050;-78
2022/01/05 10:24:47;;;;;;;6.97;2.42;;;;;;;;;;5111952;28;20019;-78
2022/01/05 10:27:20;;;;;;;5.43;1.50;;;;;;;;;;5111582;28;20024;-79
2022/01/05 10:29:56;;;;;;;7.22;1.80;;;;;;;;;;5111733;28;20035;-78
2022/01/05 10:32:23;;;;;;;8.30;1.63;;;;;;;;;;5111714;28;20104;-79
2022/01/05 10:34:59;;;;;;;7.43;2.20;;;;;;;;;;5111735;28;20364;-79
2022/01/05 10:37:26;;;;;;;4.40;1.92;;;;;;;;;;5112140;28;20046;-78
2022/01/05 10:40:03;;;;;;;4.70;1.60;;;;;;;;;;5111689;28;20038;-78
2022/01/05 10:42:32;;;;;;;5.82;1.67;;;;;;;;;;5111701;28;20023;-79
2022/01/05 10:44:58;;;;;;;7.93;2.13;;;;;;;;;;5111701;28;20055;-79
2022/01/05 10:47:25;;;;;;;7.35;2.03;;;;;;;;;;5111798;28;20020;-79
2022/01/05 10:49:51;;;;;;;7.20;1.63;;;;;;;;;;5111532;28;20080;-79
2022/01/05 10:52:22;;;;;;;4.68;1.33;;;;;;;;;;5111372;28;20054;-79
2022/01/05 10:54:48;;;;;;;5.50;1.52;;;;;;;;;;5111600;28;20533;-78
2022/01/05 10:57:14;;;;;;;8.18;1.73;;;;;;;;;;5111435;28;20479;-79
2022/01/05 10:59:42;;;;;;;6.10;1.85;;;;;;;;;;5111392;28;20061;-78
2022/01/05 11:02:24;;;;;;;5.70;1.50;;;;;;;;;;5111262;28;20027;-79
2022/01/05 11:04:50;;;;;;;4.82;1.55;;;;;;;;;;5093184;28;20019;-79
2022/01/05 11:07:24;;;;;;;5.18;1.60;;;;;;;;;;5111306;28;20027;-77
2022/01/05 11:09:54;;;;;;;6.03;1.80;;;;;;;;;;5111347;28;20040;-82
2022/01/05 11:12:20;;;;;;;9.90;1.60;;;;;;;;;;5111275;28;20084;-78
2022/01/05 11:14:46;;;;;;;6.90;1.60;;;;;;;;;;5111399;28;20019;-80
2022/01/05 11:17:17;;;;;;;8.07;2.33;;;;;;;;;;5111506;28;20028;-80
2022/01/05 11:19:43;;;;;;;8.18;1.83;;;;;;;;;;5115420;28;20016;-80
2022/01/05 11:22:17;;;;;;;6.78;1.88;;;;;;;;;;5115214;28;20034;-83
2022/01/05 11:24:43;;;;;;;8.30;1.90;;;;;;;;;;5096646;28;20027;-80
2022/01/05 11:27:11;;;;;;;5.85;1.70;;;;;;;;;;5115087;28;20028;-79
2022/01/05 11:29:38;;;;;;;5.22;1.25;;;;;;;;;;5096913;28;20028;-80
2022/01/05 11:32:05;;;;;;;9.85;1.83;;;;;;;;;;5114771;28;20046;-79
2022/01/05 11:34:31;;;;;;;9.68;1.80;;;;;;;;;;5115084;28;20019;-78
2022/01/05 11:36:57;;;;;;;7.05;1.38;;;;;;;;;;5096801;28;20031;-81
2022/01/05 11:39:24;;;;;;;4.45;1.30;;;;;;;;;;5114746;28;20080;-83
2022/01/05 11:41:52;;;;;;;9.45;1.50;;;;;;;;;;5115024;28;20083;-80
2022/01/05 11:44:18;;;;;;;4.90;1.02;;;;;;;;;;5114640;28;20360;-80
2022/01/05 11:46:46;;;;;;;9.02;1.63;;;;;;;;;;5114966;28;20023;-85
2022/01/05 11:49:14;;;;;;;5.38;1.48;;;;;;;;;;5114655;28;20030;-82
2022/01/05 11:51:43;;;;;;;8.13;2.10;;;;;;;;;;5114805;28;20115;-80
2022/01/05 11:54:21;;;;;;;5.72;1.45;;;;;;;;;;5095692;28;20031;-80
2022/01/05 11:56:49;;;;;;;6.80;1.88;;;;;;;;;;5113578;28;20382;-79
2022/01/05 11:59:20;;;;;;;4.68;1.42;;;;;;;;;;5114273;28;20028;-76
2022/01/05 12:02:04;;;;;;;5.40;1.67;;;;;;;;;;5114585;28;20015;-76
2022/01/05 12:04:31;;;;;;;5.90;1.65;;;;;;;;;;5096068;28;20448;-76
2022/01/05 12:07:00;;;;;;;5.97;1.50;;;;;;;;;;5114831;28;20024;-76
2022/01/05 12:09:28;;;;;;;3.67;1.20;;;;;;;;;;5114825;28;20057;-76
2022/01/05 12:11:55;;;;;;;4.55;1.42;;;;;;;;;;5113721;28;20383;-76
2022/01/05 12:14:21;;;;;;;4.50;1.30;;;;;;;;;;5113439;28;20016;-76
2022/01/05 12:17:00;;;;;;;4.38;1.25;;;;;;;;;;5113823;28;20445;-76
2022/01/05 12:19:26;;;;;;;6.38;2.08;;;;;;;;;;5114583;28;20031;-77
2022/01/05 12:21:54;;;;;;;5.97;1.73;;;;;;;;;;5114283;28;20087;-76
2022/01/05 12:24:20;;;;;;;5.53;1.50;;;;;;;;;;5114122;28;20096;-76
2022/01/05 12:27:05;;;;;;;4.00;1.30;;;;;;;;;;5114141;28;20012;-77
2022/01/05 12:29:31;;;;;;;5.53;1.70;;;;;;;;;;5113479;28;20425;-77
2022/01/05 12:31:58;;;;;;;4.80;1.30;;;;;;;;;;5113764;28;20068;-76
2022/01/05 12:34:43;;;;;;;5.07;1.50;;;;;;;;;;5114317;28;20387;-77
2022/01/05 12:37:27;;;;;;;5.80;1.40;;;;;;;;;;5112866;28;20054;-77
2022/01/05 12:39:56;;;;;;;4.38;1.42;;;;;;;;;;5114112;28;20085;-76
2022/01/05 12:42:23;;;;;;;5.22;1.88;;;;;;;;;;5112894;28;20118;-76
2022/01/05 12:44:49;;;;;;;5.38;1.58;;;;;;;;;;5112008;28;20069;-77
2022/01/05 12:47:16;;;;;;;4.35;1.55;;;;;;;;;;5093500;28;20023;-76
2022/01/05 12:49:42;;;;;;;4.80;1.25;;;;;;;;;;5093266;28;20035;-76
2022/01/05 12:52:09;;;;;;;5.80;1.70;;;;;;;;;;5112738;27;20030;-77
2022/01/05 12:54:43;;;;;;;5.35;1.75;;;;;;;;;;5112738;28;20091;-77
2022/01/05 12:57:17;;;;;;;4.53;1.45;;;;;;;;;;5114800;27;20027;-77
2022/01/05 12:59:46;;;;;;;6.20;1.73;;;;;;;;;;5113116;27;20068;-77
2022/01/05 13:02:16;;;;;;;8.02;2.03;;;;;;;;;;5112587;28;20102;-77
2022/01/05 13:04:46;;;;;;;4.15;1.95;;;23.30;54.80;;;;;;5095084;28;20032;-78
2022/01/05 13:07:12;;;;;;;4.05;1.55;;;20.90;57.60;;;;;;5094924;28;20019;-77
2022/01/05 13:09:46;;;;;;;5.57;1.73;;;20.60;58.00;;;;;;5113094;28;20031;-77
2022/01/05 13:12:15;;;;;;;6.78;1.55;;;20.50;58.20;;;;;;5112915;28;20047;-78
2022/01/05 13:14:41;;;;;;;4.80;1.67;;;20.30;58.30;;;;;;5114252;27;20020;-79
2022/01/05 13:17:20;;;;;;;6.68;1.58;;;20.30;58.30;;;;;;5092504;28;20032;-80
2022/01/05 13:19:59;;;;;;;5.97;2.03;;;;;;;;;;5109580;28;20395;-80
2022/01/05 13:22:37;;;;;;;3.60;1.33;;;;;;;;;;5115339;27;20072;-80
2022/01/05 13:25:09;;;;;;;4.82;1.60;;;;;;;;;;5111277;28;20089;-80
2022/01/05 13:27:44;;;;;;;6.60;1.27;;;;;;;;;;5112902;28;20502;-80
2022/01/05 13:30:15;;;;;;;3.90;1.30;;;;;;;;;;5112467;28;20063;-80
2022/01/05 13:32:42;;;;;;;6.40;1.45;;;;;;;;;;5077757;28;20470;-80
2022/01/05 13:35:12;;;;;;;5.38;1.30;;;;;;;;;;5112607;28;20391;-79
2022/01/05 13:37:43;;;;;;;5.22;1.52;;;;;;;;;;5112741;28;20035;-80
2022/01/05 13:40:10;;;;;;;5.85;2.45;;;;;;;;;;5111785;28;20031;-80
2022/01/05 13:42:47;;;;;;;5.68;1.50;;;;;;;;;;5110940;28;20144;-79
2022/01/05 13:45:15;;;;;;;4.97;1.33;;;;;;;;;;5112095;28;20110;-79
2022/01/05 13:47:41;;;;;;;6.70;1.90;;;;;;;;;;5112522;28;20076;-79
2022/01/05 13:50:16;;;;;;;4.70;1.48;;;;;;;;;;5112364;28;20035;-80
2022/01/05 13:52:44;;;;;;;4.25;1.13;;;;;;;;;;5112457;28;20521;-80
2022/01/05 13:55:20;;;;;;;4.63;1.15;;;;;;;;;;5112248;28;20019;-79
2022/01/05 13:57:45;;;;;;;4.53;1.70;;;20.20;58.50;;;;;;5112061;28;20023;-80
2022/01/05 14:00:12;;;;;;;4.68;1.30;;;19.20;59.20;;;;;;5112113;28;20043;-80
2022/01/05 14:02:39;;;;;;;6.10;1.50;;;19.10;59.30;;;;;;5112288;28;20085;-82
2022/01/05 14:05:07;;;;;;;5.20;1.50;;;19.10;59.30;;;;;;5111599;28;20030;-81
2022/01/05 14:07:37;;;;;;;4.90;1.70;;;19.00;59.30;;;;;;5094004;28;20032;-81
2022/01/05 14:10:13;;;;;;;5.28;1.85;;;19.00;59.40;;;;;;5111768;28;20023;-81
2022/01/05 14:12:45;;;;;;;5.63;1.50;;;19.00;59.40;;;;;;5112297;28;20059;-79
2022/01/05 14:15:12;;;;;;;5.90;1.85;;;18.90;60.00;;;;;;5093623;28;20016;-81
2022/01/05 14:17:56;;;;;;;5.10;1.77;;;18.90;59.40;;;;;;5112160;28;20030;-83
2022/01/05 14:20:23;;;;;;;5.20;1.40;;;18.90;59.50;;;;;;5108258;28;20491;-80
2022/01/05 14:23:17;;;;;;;5.22;1.45;;;18.80;59.40;;;;;;5111970;28;20102;-80
2022/01/05 14:25:49;;;;;;;6.47;1.60;;;18.70;59.40;;;;;;5091187;28;20123;-82
2022/01/05 14:28:18;;;;;;;5.47;1.55;;;18.70;59.40;;;;;;5092358;28;20072;-81
2022/01/05 14:30:52;;;;;;;4.43;1.40;;;18.60;59.50;;;;;;5093250;28;20043;-81
2022/01/05 14:33:36;;;;;;;6.70;1.60;;;18.70;59.60;;;;;;5111680;28;20041;-82
2022/01/05 14:36:04;;;;;;;3.75;1.17;;;;;;;;;;5111683;28;20111;-82
2022/01/05 14:38:30;;;;;;;4.53;1.48;;;;;;;;;;5111864;28;20023;-80
2022/01/05 14:41:11;;;;;;;6.20;1.50;;;;;;;;;;5111981;28;20348;-81